Time;durP1;ratioP1;P1;durP2;ratioP2;P2;SDS_P1;SDS_P2;PMS_P1;PMS_P2;Temp;Humidity;BMP_temperature;BMP_pressure;BME280_temperature;BME280_humidity;BME280_pressure;Samples;Min_cycle;Max_cycle;Signal;HPM_P1;HPM_P2
2022/12/07 00:01:17;;;;;;;12.10;6.70;;;;;;;-3.65;70.67;100067.61;1784033;79;21002;-75
2022/12/07 00:03:44;;;;;;;12.33;6.12;;;;;;;-3.67;70.76;100089.78;1774918;80;21026;-76
2022/12/07 00:06:12;;;;;;;13.20;7.20;;;;;;;-3.67;70.74;100078.09;1786920;79;20996;-76
2022/12/07 00:08:39;;;;;;;11.80;7.33;;;;;;;-3.68;70.87;100077.70;1790465;79;21083;-77
2022/12/07 00:11:09;;;;;;;13.72;7.58;;;;;;;-3.68;70.91;100074.27;1771197;80;21559;-74
2022/12/07 00:13:36;;;;;;;12.93;6.97;;;;;;;-3.66;70.99;100078.93;1772371;80;21530;-77
2022/12/07 00:16:09;;;;;;;13.50;7.15;;;;;;;-3.65;70.93;100081.47;1785702;79;21086;-75
2022/12/07 00:18:35;;;;;;;13.15;6.92;;;;;;;-3.62;70.88;100072.22;1793663;79;21575;-75
2022/12/07 00:21:15;;;;;;;12.93;6.60;;;;;;;-3.62;70.91;100076.58;1793622;79;21269;-73
2022/12/07 00:23:43;;;;;;;12.90;6.08;;;;;;;-3.59;70.86;100066.06;1791583;80;21057;-74
2022/12/07 00:26:13;;;;;;;13.88;7.25;;;;;;;-3.63;70.89;100064.48;1784066;79;21048;-76
2022/12/07 00:28:40;;;;;;;12.25;7.10;;;;;;;-3.63;70.88;100061.46;1763034;81;21015;-75
2022/12/07 00:31:11;;;;;;;13.18;6.87;;;;;;;-3.64;71.08;100075.80;1787318;78;21037;-76
2022/12/07 00:33:38;;;;;;;11.88;6.55;;;;;;;-3.57;71.07;100063.77;1701990;83;21132;-76
2022/12/07 00:36:11;;;;;;;14.55;7.40;;;;;;;-3.53;71.05;100059.71;1669776;85;21042;-75
2022/12/07 00:38:38;;;;;;;12.55;7.15;;;;;;;-3.52;70.95;100057.05;1714893;82;21045;-78
2022/12/07 00:41:12;;;;;;;13.90;7.37;;;;;;;-3.48;70.83;100060.35;1748604;81;21079;-77
2022/12/07 00:43:40;;;;;;;13.78;6.55;;;;;;;-3.49;70.84;100050.89;1737375;82;21124;-76
2022/12/07 00:46:06;;;;;;;13.72;8.33;;;;;;;-3.45;70.93;100049.38;1731971;82;21161;-77
2022/12/07 00:48:33;;;;;;;13.08;7.22;;;;;;;-3.40;70.94;100043.52;1751414;82;21022;-76
2022/12/07 00:50:59;;;;;;;14.10;7.28;;;;;;;-3.39;70.74;100039.98;1748780;81;21039;-77
2022/12/07 00:53:26;;;;;;;14.58;7.30;;;;;;;-3.32;70.63;100038.39;1750900;82;22021;-77
2022/12/07 00:55:53;;;;;;;12.35;6.75;;;;;;;-3.34;70.53;100037.19;1733940;82;21142;-78
2022/12/07 00:58:20;;;;;;;13.15;7.78;;;;;;;-3.32;70.56;100035.80;1723191;81;21795;-78
2022/12/07 01:00:46;;;;;;;12.95;6.80;;;;;;;-3.35;70.67;100032.89;1693569;82;21070;-77
2022/12/07 01:03:14;;;;;;;12.37;6.40;;;;;;;-3.32;70.66;100026.70;1701773;84;21030;-77
2022/12/07 01:05:53;;;;;;;13.60;6.58;;;;;;;-3.33;70.72;100027.16;1701577;84;21043;-77
2022/12/07 01:08:20;;;;;;;11.35;6.37;;;;;;;-3.34;70.80;100021.60;1733014;82;21279;-76
2022/12/07 01:10:47;;;;;;;13.00;7.62;;;;;;;-3.34;70.98;100025.93;1732444;82;21158;-77
2022/12/07 01:13:14;;;;;;;14.53;6.62;;;;;;;-3.30;71.04;100018.38;1732023;82;21153;-77
2022/12/07 01:15:42;;;;;;;14.35;7.78;;;;;;;-3.29;71.07;100015.70;1730884;82;21626;-77
2022/12/07 01:18:08;;;;;;;15.32;7.55;;;;;;;-3.26;71.11;100005.17;1730074;82;21066;-78
2022/12/07 01:20:35;;;;;;;15.43;6.25;;;;;;;-3.25;71.17;100008.14;1732050;82;21042;-77
2022/12/07 01:23:01;;;;;;;12.18;7.05;;;;;;;-3.23;71.19;100001.11;1733503;81;21118;-78
2022/12/07 01:25:29;;;;;;;11.80;6.95;;;;;;;-3.22;71.37;99991.59;1730722;82;21058;-77
2022/12/07 01:27:56;;;;;;;15.48;6.62;;;;;;;-3.20;71.47;99988.45;1732320;81;21036;-77
2022/12/07 01:30:23;;;;;;;13.10;7.12;;;;;;;-3.15;71.40;99983.84;1725833;82;21076;-79
2022/12/07 01:32:49;;;;;;;13.45;7.50;;;;;;;-3.17;71.57;99979.19;1716698;82;21085;-79
2022/12/07 01:35:16;;;;;;;12.10;7.08;;;;;;;-3.17;71.70;99979.19;1708880;82;21597;-79
2022/12/07 01:37:43;;;;;;;14.58;7.83;;;;;;;-3.17;72.00;99975.29;1729056;81;21093;-80
2022/12/07 01:40:10;;;;;;;11.68;7.25;;;;;;;-3.17;72.12;99977.89;1748496;81;21180;-82
2022/12/07 01:42:37;;;;;;;15.38;7.97;;;;;;;-3.15;72.33;99963.06;1684028;82;21042;-79
2022/12/07 01:45:38;;;;;;;10.80;7.25;;;;;;;-3.16;72.47;99963.53;1732322;82;21013;-78
2022/12/07 01:48:06;;;;;;;11.93;6.83;;;;;;;-3.11;72.42;99964.62;1733764;82;21231;-78
2022/12/07 01:50:33;;;;;;;11.97;7.08;;;;;;;-3.15;72.67;99960.46;1691136;83;21073;-79
2022/12/07 01:53:01;;;;;;;13.35;6.62;;;;;;;-3.15;72.85;99966.95;1702712;84;21087;-78
2022/12/07 01:55:29;;;;;;;17.80;7.12;;;;;;;-3.14;72.96;99966.05;1699841;83;21541;-78
2022/12/07 01:57:56;;;;;;;13.45;7.12;;;;;;;-3.20;73.13;99955.97;1706436;82;22146;-79
2022/12/07 02:00:22;;;;;;;13.28;7.17;;;;;;;-3.18;73.29;99953.66;1723753;81;21157;-78
2022/12/07 02:02:57;;;;;;;12.85;7.33;;;;;;;-3.17;73.50;99954.06;1750966;82;21030;-76
2022/12/07 02:05:24;;;;;;;10.82;7.00;;;;;;;-3.15;73.64;99968.25;1742271;81;21078;-77
2022/12/07 02:07:53;;;;;;;12.82;7.33;;;;;;;-3.16;73.89;99958.33;1742978;81;21054;-79
2022/12/07 02:10:29;;;;;;;11.65;6.62;;;;;;;-3.12;74.16;99956.42;1731454;82;21050;-77
2022/12/07 02:13:13;;;;;;;15.88;6.72;;;;;;;-3.11;74.51;99959.85;1731814;82;21114;-80
2022/12/07 02:16:17;;;;;;;10.28;6.53;;;;;;;-3.08;74.68;99954.05;1703755;83;21022;-80
2022/12/07 02:19:23;;;;;;;9.20;6.22;;;;;;;-3.06;75.05;99957.88;1743074;82;28294;-78
2022/12/07 02:22:01;;;;;;;11.95;6.60;;;;;;;-3.05;75.49;99955.64;1747456;81;21094;-76
2022/12/07 02:24:55;;;;;;;11.18;6.55;;;;;;;-3.05;75.78;99938.31;1737657;81;21102;-79
2022/12/07 02:27:45;;;;;;;13.45;7.10;;;;;;;-3.03;76.14;99934.34;1712301;82;21527;-76
2022/12/07 02:30:15;;;;;;;8.90;6.33;;;;;;;-3.01;76.53;99941.14;1707764;82;21090;-79
2022/12/07 02:33:00;;;;;;;10.30;6.42;;;;;;;-3.02;77.25;99938.14;1699814;84;21050;-78
2022/12/07 02:35:43;;;;;;;11.28;5.83;;;;;;;-3.02;77.45;99930.34;1723292;82;21049;-78
2022/12/07 02:38:26;;;;;;;12.90;6.92;;;;;;;-3.03;77.93;99930.45;1746878;81;21046;-77
2022/12/07 02:41:10;;;;;;;12.93;7.37;;;;;;;-3.03;78.16;99932.58;1730488;82;21315;-77
2022/12/07 02:43:42;;;;;;;10.48;6.85;;;;;;;-3.00;78.48;99923.77;1702687;83;21047;-78
2022/12/07 02:46:13;;;;;;;11.68;6.90;;;;;;;-2.99;78.72;99927.61;1700439;83;21322;-77
2022/12/07 02:48:40;;;;;;;12.95;6.87;;;;;;;-2.99;78.62;99935.88;1699945;84;21535;-78
2022/12/07 02:51:06;;;;;;;12.68;7.30;;;;;;;-2.99;79.17;99924.17;1699815;84;21054;-79
2022/12/07 02:53:38;;;;;;;13.18;8.08;;;;;;;-3.00;79.41;99932.41;1729608;81;21210;-78
2022/12/07 02:56:35;;;;;;;12.80;7.47;;;;;;;-2.91;79.58;99923.78;1702878;84;21107;-79
2022/12/07 02:59:26;;;;;;;10.78;7.40;;;;;;;-2.91;79.80;99923.31;1707551;81;21109;-80
2022/12/07 03:02:22;;;;;;;12.05;7.08;;;;;;;-2.88;79.80;99923.61;1712117;83;21059;-80
2022/12/07 03:05:06;;;;;;;13.05;7.75;;;;;;;-2.87;79.94;99915.73;1713348;82;21066;-78
2022/12/07 03:07:44;;;;;;;18.92;8.03;;;;;;;-2.86;80.00;99906.17;1732193;82;21550;-77
2022/12/07 03:10:46;;;;;;;13.30;8.20;;;;;;;-2.84;80.25;99914.30;1724543;82;20990;-78
2022/12/07 03:13:44;;;;;;;17.70;8.58;;;;;;;-2.77;80.41;99901.80;1728750;82;21060;-77
2022/12/07 03:16:18;;;;;;;15.35;8.68;;;;;;;-2.79;80.48;99897.97;1695660;82;21078;-77
2022/12/07 03:18:58;;;;;;;15.65;9.53;;;;;;;-2.75;80.93;99908.23;1702523;84;21069;-77
2022/12/07 03:21:35;;;;;;;16.93;9.78;;;;;;;-2.81;81.17;99891.19;1730894;82;21197;-78
2022/12/07 03:24:06;;;;;;;18.40;9.20;;;;;;;-2.77;81.37;99900.50;1720425;83;21045;-78
2022/12/07 03:26:40;;;;;;;15.35;8.68;;;;;;;-2.76;81.67;99899.59;1726733;82;21004;-80
2022/12/07 03:29:11;;;;;;;16.65;9.05;;;;;;;-2.76;81.78;99897.00;1736802;82;21023;-80
2022/12/07 03:31:41;;;;;;;20.90;10.05;;;;;;;-2.76;82.05;99889.20;1723448;82;21076;-79
2022/12/07 03:34:28;;;;;;;18.92;10.23;;;;;;;-2.77;82.28;99868.00;1732071;82;21125;-79
2022/12/07 03:37:05;;;;;;;18.62;9.23;;;;;;;-2.77;82.45;99885.73;1726800;82;21407;-78
2022/12/07 03:40:21;;;;;;;16.27;9.10;;;;;;;-2.82;82.62;99876.48;1731381;82;21043;-74
2022/12/07 03:42:48;;;;;;;17.50;9.38;;;;;;;-2.80;82.56;99872.91;1731200;82;21019;-75
2022/12/07 03:45:14;;;;;;;24.18;8.83;;;;;;;-2.79;82.61;99859.44;1726935;82;21112;-80
2022/12/07 03:47:52;;;;;;;20.77;8.85;;;;;;;-2.82;82.69;99866.09;1732588;82;21037;-79
2022/12/07 03:50:49;;;;;;;18.12;8.55;;;;;;;-2.81;82.83;99861.28;1708801;83;21050;-80
2022/12/07 03:53:36;;;;;;;21.27;9.30;;;;;;;-2.77;82.97;99853.70;1729847;82;21948;-79
2022/12/07 03:56:03;;;;;;;18.85;8.38;;;;;;;-2.78;83.06;99858.53;1730143;82;20989;-77
2022/12/07 03:58:30;;;;;;;19.12;8.50;;;;;;;-2.75;82.95;99858.82;1728909;82;21003;-80
2022/12/07 04:00:56;;;;;;;14.55;7.15;;;;;;;-2.76;83.02;99854.09;1727034;82;21063;-80
2022/12/07 04:03:22;;;;;;;16.73;8.25;;;;;;;-2.71;82.89;99860.34;1732051;81;21015;-77
2022/12/07 04:05:49;;;;;;;16.67;8.38;;;;;;;-2.72;82.94;99846.50;1733726;82;21023;-78
2022/12/07 04:08:15;;;;;;;10.68;6.70;;;;;;;-2.67;82.88;99855.34;1735318;82;21093;-79
2022/12/07 04:10:42;;;;;;;12.37;7.90;;;;;;;-2.68;82.98;99848.02;1731111;82;21105;-79
2022/12/07 04:13:09;;;;;;;12.03;6.62;;;;;;;-2.67;82.88;99841.05;1704525;82;21596;-78
2022/12/07 04:15:36;;;;;;;13.10;7.92;;;;;;;-2.67;83.07;99847.08;1730781;82;21067;-78
2022/12/07 04:18:02;;;;;;;14.23;6.85;;;;;;;-2.65;83.01;99836.60;1730463;81;21042;-79
2022/12/07 04:20:29;;;;;;;17.10;7.85;;;;;;;-2.66;83.06;99840.14;1716295;81;21059;-82
2022/12/07 04:22:55;;;;;;;12.47;6.85;;;;;;;-2.71;83.27;99841.66;1682515;81;21100;-80
2022/12/07 04:25:22;;;;;;;12.10;7.12;;;;;;;-2.73;83.22;99837.48;1684179;83;21263;-78
2022/12/07 04:30:39;;;;;;;12.10;6.20;;;;;;;-2.80;83.63;99844.74;1870276;76;22736;-79
2022/12/07 04:33:05;;;;;;;13.75;6.65;;;;;;;-2.87;83.84;99832.54;1820250;77;21070;-77
2022/12/07 04:35:32;;;;;;;13.68;7.37;;;;;;;-2.85;83.92;99828.56;1828459;78;21608;-75
2022/12/07 04:37:58;;;;;;;13.83;7.12;;;;;;;-2.82;84.09;99828.38;1827024;78;20922;-76
2022/12/07 04:40:25;;;;;;;12.85;7.33;;;;;;;-2.83;84.11;99829.32;1819777;77;21013;-76
2022/12/07 04:42:51;;;;;;;12.90;6.60;;;;;;;-2.81;84.17;99843.91;1823114;77;21070;-79
2022/12/07 04:45:17;;;;;;;10.80;6.37;;;;;;;-2.83;84.21;99826.25;1827550;78;21114;-80
2022/12/07 04:47:44;;;;;;;13.75;6.60;;;;;;;-2.80;84.15;99830.00;1829316;78;21125;-76
2022/12/07 04:50:11;;;;;;;14.60;6.35;;;;;;;-2.80;84.20;99832.61;1826873;78;21560;-77
2022/12/07 04:52:38;;;;;;;15.63;6.60;;;;;;;-2.77;84.25;99838.92;1827613;78;20994;-72
2022/12/07 04:55:05;;;;;;;14.15;6.37;;;;;;;-2.75;84.25;99827.62;1821837;77;21032;-75
2022/12/07 04:57:31;;;;;;;11.93;6.47;;;;;;;-2.77;84.67;99827.69;1796381;78;21025;-76
2022/12/07 04:59:58;;;;;;;9.73;5.92;;;;;;;-2.79;84.84;99830.37;1804917;77;21110;-75
2022/12/07 05:02:24;;;;;;;9.63;6.40;;;;;;;-2.80;84.99;99817.44;1819858;78;21516;-77
2022/12/07 05:04:51;;;;;;;10.78;6.10;;;;;;;-2.75;84.94;99823.25;1819700;78;21024;-77
2022/12/07 05:07:18;;;;;;;10.13;6.80;;;;;;;-2.73;85.00;99811.00;1819711;78;21032;-74
2022/12/07 05:09:45;;;;;;;10.75;5.83;;;;;;;-2.72;84.86;99813.13;1818358;77;21013;-75
2022/12/07 05:12:11;;;;;;;8.85;5.53;;;;;;;-2.77;85.15;99806.89;1819755;78;21073;-75
2022/12/07 05:14:39;;;;;;;8.55;5.45;;;;;;;-2.71;85.12;99810.45;1817127;78;21485;-77
2022/12/07 05:17:05;;;;;;;11.97;5.90;;;;;;;-2.74;85.21;99799.38;1794836;79;21049;-77
2022/12/07 05:19:32;;;;;;;10.25;5.78;;;;;;;-2.71;85.06;99812.23;1794150;80;21021;-78
2022/12/07 05:21:58;;;;;;;11.50;6.17;;;;;;;-2.76;85.15;99812.48;1794166;80;21096;-75
2022/12/07 05:24:24;;;;;;;10.68;6.33;;;;;;;-2.78;85.21;99807.36;1814804;77;21186;-75
2022/12/07 05:26:51;;;;;;;11.00;5.65;;;;;;;-2.75;85.22;99804.22;1822258;77;21004;-76
2022/12/07 05:29:17;;;;;;;10.38;5.95;;;;;;;-2.73;85.21;99815.38;1821697;77;21044;-74
2022/12/07 05:31:44;;;;;;;14.98;6.30;;;;;;;-2.70;85.13;99803.52;1823585;78;21059;-76
2022/12/07 05:34:11;;;;;;;15.13;6.33;;;;;;;-2.71;85.20;99812.23;1800277;79;21009;-76
2022/12/07 05:36:37;;;;;;;12.33;5.62;;;;;;;-2.72;85.54;99804.89;1818816;77;21055;-74
2022/12/07 05:39:04;;;;;;;12.25;6.72;;;;;;;-2.70;85.49;99813.92;1827171;77;21020;-76
2022/12/07 05:42:13;;;;;;;13.20;6.30;;;;;;;-2.72;85.37;99807.49;1825956;78;21088;-76
2022/12/07 05:44:01;;;;;;;14.90;5.40;;;;;;;-2.71;85.31;99824.76;1803330;78;20997;-74
2022/12/07 05:46:28;;;;;;;13.30;6.12;;;;;;;-2.70;85.03;99811.31;1825983;78;20985;-77
2022/12/07 05:48:54;;;;;;;12.28;6.40;;;;;;;-2.69;85.11;99804.71;1825480;77;21118;-76
2022/12/07 05:51:21;;;;;;;14.13;5.60;;;;;;;-2.69;85.05;99812.52;1823482;77;21503;-75
2022/12/07 05:53:48;;;;;;;11.60;5.22;;;;;;;-2.66;84.90;99810.23;1817991;78;21005;-80
2022/12/07 05:56:14;;;;;;;9.43;5.60;;;;;;;-2.66;84.95;99812.36;1795878;79;21033;-78
2022/12/07 06:01:26;;;;;;;13.72;5.67;;;;;;;-2.65;84.76;99810.13;1826831;77;21122;-75
2022/12/07 06:03:52;;;;;;;10.53;5.75;;;;;;;-2.70;84.87;99801.75;1823871;77;21115;-73
2022/12/07 06:06:19;;;;;;;12.10;5.60;;;;;;;-2.68;84.96;99805.58;1821588;77;21101;-73
2022/12/07 06:08:45;;;;;;;11.63;5.50;;;;;;;-2.69;85.03;99809.91;1809075;77;21485;-72
2022/12/07 06:13:57;;;;;;;14.80;5.62;;;;;;;-2.66;85.20;99805.86;1831774;77;22159;-71
2022/12/07 06:16:23;;;;;;;9.03;5.28;;;;;;;-2.67;85.14;99802.86;1839731;77;20981;-73
2022/12/07 06:18:50;;;;;;;9.65;4.72;;;;;;;-2.63;85.14;99803.55;1839427;77;20978;-73
2022/12/07 06:21:18;;;;;;;7.65;5.28;;;;;;;-2.62;84.99;99807.37;1834253;77;21068;-71
2022/12/07 06:23:44;;;;;;;9.35;5.45;;;;;;;-2.63;84.91;99808.31;1817137;77;21072;-73
2022/12/07 06:26:11;;;;;;;9.70;5.33;;;;;;;-2.63;84.93;99801.80;1828488;77;21124;-74
2022/12/07 06:28:37;;;;;;;8.40;4.83;;;;;;;-2.62;84.96;99811.27;1830006;77;21064;-74
2022/12/07 06:31:04;;;;;;;8.93;4.55;;;;;;;-2.60;85.00;99802.92;1833113;75;20977;-73
2022/12/07 06:33:30;;;;;;;11.73;4.95;;;;;;;-2.57;84.97;99793.66;1835523;77;21029;-73
2022/12/07 06:35:57;;;;;;;10.95;5.72;;;;;;;-2.58;84.72;99803.67;1825998;77;21080;-72
2022/12/07 06:38:24;;;;;;;10.28;5.37;;;;;;;-2.53;84.59;99802.58;1834444;77;21194;-78
2022/12/07 06:40:51;;;;;;;12.03;5.78;;;;;;;-2.57;84.69;99794.97;1828182;77;21021;-72
2022/12/07 06:43:17;;;;;;;11.93;5.85;;;;;;;-2.58;84.85;99793.27;1819707;77;21014;-76
2022/12/07 06:45:44;;;;;;;10.25;5.22;;;;;;;-2.59;85.14;99793.34;1809286;77;21052;-77
2022/12/07 06:48:11;;;;;;;10.15;5.08;;;;;;;-2.58;85.26;99795.04;1833902;77;21016;-78
2022/12/07 06:50:37;;;;;;;9.18;5.55;;;;;;;-2.54;85.06;99786.14;1832946;77;21266;-78
2022/12/07 06:53:03;;;;;;;9.63;5.10;;;;;;;-2.53;84.96;99792.17;1831749;77;21041;-77
2022/12/07 06:55:30;;;;;;;8.95;5.17;;;;;;;-2.51;84.92;99794.23;1792039;77;21001;-77
2022/12/07 06:57:57;;;;;;;9.15;5.45;;;;;;;-2.50;85.04;99790.25;1831470;77;21104;-78
2022/12/07 07:00:24;;;;;;;10.28;5.72;;;;;;;-2.47;84.80;99790.09;1792970;80;20990;-77
2022/12/07 07:02:51;;;;;;;10.68;5.60;;;;;;;-2.44;84.71;99790.38;1815777;77;21141;-76
2022/12/07 07:05:17;;;;;;;9.93;5.78;;;;;;;-2.45;84.73;99787.42;1826078;78;20990;-76
2022/12/07 07:07:44;;;;;;;9.25;5.85;;;;;;;-2.39;84.72;99792.28;1825600;78;21017;-77
2022/12/07 07:10:10;;;;;;;10.65;5.97;;;;;;;-2.36;84.69;99780.37;1825866;78;21068;-78
2022/12/07 07:12:37;;;;;;;8.73;5.55;;;;;;;-2.35;84.54;99782.08;1817051;77;21520;-77
2022/12/07 07:15:05;;;;;;;20.85;5.95;;;;;;;-2.30;84.41;99784.41;1802075;78;21548;-77
2022/12/07 07:17:32;;;;;;;16.45;5.45;;;;;;;-2.31;84.18;99781.45;1793496;80;21076;-78
2022/12/07 07:19:58;;;;;;;10.32;5.75;;;;;;;-2.31;84.28;99776.24;1795404;79;21412;-77
2022/12/07 07:22:25;;;;;;;8.85;5.40;;;;;;;-2.28;84.27;99776.91;1799121;77;21056;-78
2022/12/07 07:24:51;;;;;;;9.03;5.83;;;;;;;-2.31;84.22;99775.77;1826312;78;21040;-79
2022/12/07 07:27:18;;;;;;;8.55;5.42;;;;;;;-2.30;84.15;99774.86;1816639;77;21554;-79
2022/12/07 07:29:45;;;;;;;11.55;5.65;;;;;;;-2.30;84.12;99772.27;1791760;77;20977;-78
2022/12/07 07:32:12;;;;;;;9.90;5.50;;;;;;;-2.29;84.11;99785.63;1810811;78;20970;-78
2022/12/07 07:34:38;;;;;;;11.68;6.17;;;;;;;-2.26;84.00;99775.06;1809473;77;21048;-78
2022/12/07 07:37:04;;;;;;;10.65;5.62;;;;;;;-2.30;84.06;99783.11;1830737;78;21028;-76
2022/12/07 07:39:31;;;;;;;8.55;5.37;;;;;;;-2.28;83.99;99775.61;1825857;77;21726;-75
2022/12/07 07:41:58;;;;;;;10.63;5.85;;;;;;;-2.30;84.17;99763.16;1821668;78;21017;-81
2022/12/07 07:44:25;;;;;;;9.83;5.60;;;;;;;-2.29;84.28;99775.22;1803638;78;20974;-84
2022/12/07 07:46:51;;;;;;;11.28;6.08;;;;;;;-2.25;84.33;99777.20;1831289;78;20970;-83
2022/12/07 07:49:18;;;;;;;11.00;5.33;;;;;;;-2.20;84.18;99773.41;1807647;77;21036;-84
2022/12/07 07:51:46;;;;;;;10.72;7.37;;;;;;;-2.19;84.13;99773.77;1819493;77;21444;-81
2022/12/07 07:54:13;;;;;;;13.70;6.80;;;;;;;-2.17;84.07;99774.99;1830019;77;21002;-82
2022/12/07 07:56:39;;;;;;;11.22;5.95;;;;;;;-2.14;84.16;99773.53;1831288;78;21450;-81
2022/12/07 07:59:06;;;;;;;11.60;5.55;;;;;;;-2.12;84.07;99778.66;1827944;77;21017;-81
2022/12/07 08:01:32;;;;;;;10.63;4.85;;;;;;;-2.07;84.10;99768.33;1825528;78;21071;-80
2022/12/07 08:03:58;;;;;;;12.20;6.40;;;;;;;-2.06;84.18;99782.21;1813696;78;21107;-78
2022/12/07 08:06:25;;;;;;;9.85;6.08;;;;;;;-2.03;83.84;99775.52;1824338;77;21493;-78
2022/12/07 08:08:52;;;;;;;9.68;5.15;;;;;;;-2.06;83.80;99773.93;1808756;78;21481;-79
2022/12/07 08:11:18;;;;;;;9.68;6.28;;;;;;;-2.11;84.04;99769.91;1823081;77;21071;-72
2022/12/07 08:13:50;;;;;;;10.72;5.83;;;;;;;-2.08;84.15;99771.87;1805046;78;21111;-71
2022/12/07 08:16:14;;;;;;;12.10;6.03;;;;;;;-2.10;84.16;99769.00;1808193;77;21153;-81
2022/12/07 08:18:41;;;;;;;11.38;6.15;;;;;;;-2.07;83.97;99744.91;1811727;78;21028;-71
2022/12/07 08:21:13;;;;;;;10.10;5.85;;;;;;;-2.10;84.07;99760.72;1831870;77;20989;-71
2022/12/07 08:23:40;;;;;;;11.28;6.12;;;;;;;-2.08;84.06;99752.83;1820445;78;21009;-71
2022/12/07 08:26:09;;;;;;;12.88;6.58;;;;;;;-2.09;83.99;99753.73;1817603;77;21028;-71
2022/12/07 08:28:36;;;;;;;14.25;7.00;;;;;;;-2.10;84.03;99748.17;1831649;78;21071;-73
2022/12/07 08:31:04;;;;;;;12.75;7.10;;;;;;;-2.05;83.97;99750.89;1824990;78;21333;-70
2022/12/07 08:33:31;;;;;;;9.63;6.05;;;;;;;-2.03;84.05;99754.69;1799515;78;21021;-72
2022/12/07 08:36:07;;;;;;;10.72;6.90;;;;;;;-1.96;83.90;99749.51;1824918;77;21454;-70
2022/12/07 08:38:35;;;;;;;13.65;7.15;;;;;;;-1.94;83.92;99748.95;1823567;77;21061;-71
2022/12/07 08:41:02;;;;;;;12.33;6.83;;;;;;;-1.86;83.97;99755.85;1822280;77;21793;-72
2022/12/07 08:43:29;;;;;;;12.28;7.28;;;;;;;-1.78;83.76;99744.99;1811570;77;21029;-71
2022/12/07 08:46:06;;;;;;;13.75;7.33;;;;;;;-1.76;83.28;99743.61;1809172;77;21017;-76
2022/12/07 08:48:33;;;;;;;10.05;6.80;;;;;;;-1.77;83.24;99736.73;1824060;77;21048;-72
2022/12/07 08:51:01;;;;;;;13.75;7.22;;;;;;;-1.77;83.39;99734.96;1826952;78;20994;-72
2022/12/07 08:53:29;;;;;;;13.18;7.47;;;;;;;-1.74;83.39;99731.33;1806514;78;21260;-77
2022/12/07 08:55:55;;;;;;;12.20;7.92;;;;;;;-1.73;83.48;99728.64;1832817;77;21089;-74
2022/12/07 08:58:21;;;;;;;13.10;7.70;;;;;;;-1.68;83.30;99729.66;1828849;77;21016;-72
2022/12/07 09:00:48;;;;;;;10.75;7.53;;;;;;;-1.66;83.41;99735.62;1825130;77;21068;-71
2022/12/07 09:03:14;;;;;;;13.65;7.22;;;;;;;-1.58;83.35;99724.30;1822982;77;21022;-73
2022/12/07 09:05:41;;;;;;;10.15;7.25;;;;;;;-1.52;83.35;99719.19;1819494;77;21269;-72
2022/12/07 09:08:07;;;;;;;11.90;7.35;;;;;;;-1.41;83.28;99709.80;1799904;77;21735;-73
2022/12/07 09:10:34;;;;;;;12.43;7.58;;;;;;;-1.35;83.09;99707.73;1799457;78;21017;-72
2022/12/07 09:13:01;;;;;;;15.30;9.03;;;;;;;-1.30;82.99;99703.91;1814542;77;21041;-74
2022/12/07 09:15:28;;;;;;;13.05;8.00;;;;;;;-1.22;82.74;99713.44;1799224;78;21091;-72
2022/12/07 09:17:55;;;;;;;18.98;8.80;;;;;;;-1.22;82.26;99700.84;1811503;77;21080;-73
2022/12/07 09:20:21;;;;;;;12.05;8.35;;;;;;;-1.23;82.09;99709.61;1833535;77;21037;-71
2022/12/07 09:22:49;;;;;;;18.00;8.80;;;;;;;-1.26;81.89;99694.14;1831399;77;21055;-71
2022/12/07 09:25:16;;;;;;;12.00;8.03;;;;;;;-1.23;82.12;99698.70;1832147;76;20978;-72
2022/12/07 09:27:42;;;;;;;11.80;7.53;;;;;;;-1.19;82.14;99688.46;1819997;77;21043;-72
2022/12/07 09:30:09;;;;;;;12.55;7.83;;;;;;;-1.13;81.79;99689.02;1817705;77;21139;-70
2022/12/07 09:32:36;;;;;;;14.10;8.65;;;;;;;-1.10;81.84;99689.67;1755540;79;21075;-75
2022/12/07 09:35:03;;;;;;;14.93;9.53;;;;;;;-1.07;81.78;99675.60;1760789;80;21098;-73
2022/12/07 09:37:31;;;;;;;15.13;8.90;;;;;;;-1.02;81.53;99679.59;1788813;79;21036;-72
2022/12/07 09:39:58;;;;;;;14.10;10.08;;;;;;;-1.01;81.44;99676.52;1781332;79;21019;-75
2022/12/07 09:42:29;;;;;;;12.43;8.55;;;;;;;-0.97;81.24;99677.16;1776787;80;21302;-75
2022/12/07 09:44:56;;;;;;;16.52;8.83;;;;;;;-1.01;80.97;99680.42;1794624;79;21072;-73
2022/12/07 09:47:22;;;;;;;16.75;9.00;;;;;;;-1.04;80.94;99676.73;1780094;79;21102;-75
2022/12/07 09:49:49;;;;;;;13.65;8.45;;;;;;;-1.10;80.88;99672.73;1757888;80;21058;-73
2022/12/07 09:52:28;;;;;;;13.65;9.18;;;;;;;-1.17;81.09;99692.76;1763302;80;21047;-71
2022/12/07 09:54:55;;;;;;;16.32;9.55;;;;;;;-1.18;81.07;99676.25;1755435;80;21348;-76
2022/12/07 09:57:31;;;;;;;17.95;9.35;;;;;;;-1.28;81.25;99668.16;1788881;79;21051;-79
2022/12/07 10:00:04;;;;;;;14.65;9.83;;;;;;;-1.26;81.56;99683.72;1764209;80;21069;-77
2022/12/07 10:02:45;;;;;;;14.35;9.00;;;;;;;-1.30;81.59;99678.33;1783830;80;21094;-75
2022/12/07 10:05:16;;;;;;;17.30;10.80;;;;;;;-1.34;81.64;99671.16;1770635;80;21028;-78
2022/12/07 10:07:43;;;;;;;18.20;10.38;;;;;;;-1.34;81.98;99684.66;1753094;81;21319;-80
2022/12/07 10:10:17;;;;;;;17.67;10.68;;;;;;;-1.36;82.05;99673.49;1733279;80;21063;-79
2022/12/07 10:13:04;;;;;;;19.52;10.65;;;;;;;-1.32;82.30;99671.06;1798375;79;21039;-81
2022/12/07 10:15:48;;;;;;;17.05;9.43;;;;;;;-1.29;82.39;99662.59;1753600;79;21016;-81
2022/12/07 10:18:32;;;;;;;14.80;9.85;;;;;;;-1.26;82.51;99657.17;1770438;79;21162;-82
2022/12/07 10:21:12;;;;;;;15.00;10.35;;;;;;;-1.15;82.17;99660.91;1778332;80;21166;-76
2022/12/07 10:24:01;;;;;;;16.90;11.20;;;;;;;-1.19;81.91;99666.77;1778868;80;21074;-85
2022/12/07 10:26:36;;;;;;;16.70;10.85;;;;;;;-1.19;81.85;99662.86;1784512;80;21071;-83
2022/12/07 10:29:23;;;;;;;17.07;9.88;;;;;;;-1.22;81.97;99660.44;1785716;80;21078;-84
2022/12/07 10:31:57;;;;;;;16.82;10.40;;;;;;;-1.20;82.24;99658.57;1811364;77;21084;-74
2022/12/07 10:34:29;;;;;;;16.05;10.28;;;;;;;-1.11;82.17;99654.56;1821135;77;21932;-76
2022/12/07 10:37:18;;;;;;;16.63;9.87;;;;;;;-1.12;81.92;99647.22;1824429;78;21461;-73
2022/12/07 10:53:12;;;;;;;16.83;10.97;;;;;;;-0.16;80.07;99635.37;1807056;79;22689;-74
2022/12/07 10:56:08;;;;;;;15.60;11.45;;;;;;;-0.28;79.89;99638.33;1798809;79;20991;-75
2022/12/07 10:58:52;;;;;;;13.78;10.38;;;;;;;-0.46;80.01;99641.69;1872013;76;21300;-72
2022/12/07 11:01:33;;;;;;;21.77;11.28;;;;;;;-0.57;80.36;99643.33;1843990;76;20951;-75
2022/12/07 11:04:05;;;;;;;20.90;12.45;;;;;;;-0.66;80.30;99643.44;1821129;76;22048;-79
2022/12/07 11:06:55;;;;;;;14.83;10.98;;;;;;;-0.77;80.69;99646.76;1831113;76;21481;-78
2022/12/07 11:09:59;;;;;;;18.50;11.93;;;;;;;-0.86;80.96;99644.73;1796906;79;21731;-77
2022/12/07 11:12:50;;;;;;;23.05;12.03;;;;;;;-0.96;81.42;99637.13;1839385;76;21085;-74
2022/12/07 11:15:22;;;;;;;18.07;12.00;;;;;;;-1.00;82.18;99641.22;1824953;76;20934;-76
2022/12/07 11:18:03;;;;;;;18.25;11.65;;;;;;;-0.99;82.29;99634.23;1845127;77;20937;-79
2022/12/07 11:20:38;;;;;;;20.77;12.18;;;;;;;-1.02;82.11;99635.27;1833935;77;21096;-79
2022/12/07 11:23:28;;;;;;;23.77;12.65;;;;;;;-1.05;82.14;99630.23;1840501;77;21568;-74
2022/12/07 11:26:24;;;;;;;17.60;10.95;;;;;;;-1.16;82.50;99634.45;1846862;76;21146;-75
2022/12/07 11:29:18;;;;;;;17.70;11.30;;;;;;;-1.17;82.77;99628.41;1759580;79;21065;-72
2022/12/07 11:32:24;;;;;;;17.93;11.87;;;;;;;-1.24;83.16;99633.63;1722884;79;21082;-72
2022/12/07 11:35:18;;;;;;;17.65;12.15;;;;;;;-1.33;83.70;99618.56;1848951;77;21057;-78
2022/12/07 11:37:45;;;;;;;18.02;10.98;;;;;;;-1.38;84.09;99625.38;1835576;77;21079;-77
2022/12/07 11:40:29;;;;;;;16.23;11.50;;;;;;;-1.41;84.56;99631.62;1830277;77;21336;-75
2022/12/07 11:43:32;;;;;;;18.17;11.83;;;;;;;-1.40;84.66;99642.39;1841094;76;21069;-78
2022/12/07 11:46:15;;;;;;;16.50;12.18;;;;;;;-1.46;84.80;99623.23;1838922;77;21607;-74
2022/12/07 11:49:12;;;;;;;19.48;12.50;;;;;;;-1.48;85.16;99623.80;1833604;76;21013;-73
2022/12/07 11:51:39;;;;;;;19.95;14.43;;;;;;;-1.47;85.51;99625.48;1848526;76;21523;-76
2022/12/07 11:54:16;;;;;;;22.65;14.25;;;;;;;-1.43;85.54;99623.50;1836592;76;21078;-80
2022/12/07 11:56:43;;;;;;;18.32;12.15;;;;;;;-1.43;85.76;99623.06;1817361;77;21045;-79
2022/12/07 11:59:33;;;;;;;17.85;12.15;;;;;;;-1.37;85.78;99617.08;1868152;76;21064;-73
2022/12/07 12:02:18;;;;;;;19.70;13.70;;;;;;;-1.30;85.79;99620.98;1843053;76;20998;-73
2022/12/07 12:04:51;;;;;;;;;;;;;;;-1.36;85.82;99630.02;1868780;76;21009;-76
2022/12/07 12:07:22;;;;;;;17.12;11.95;;;;;;;-1.37;86.11;99614.47;1827952;76;21129;-70